sensor_id;sensor_type;location;lat;lon;timestamp;pressure;altitude;pressure_sealevel;temperature;humidity
48244;BME280;34053;51.088;6.572;2022-12-29T00:01:13;99770.16;;;10.61;83.32
48244;BME280;34053;51.088;6.572;2022-12-29T00:03:46;99758.72;;;10.62;83.09
48244;BME280;34053;51.088;6.572;2022-12-29T00:06:17;99762.28;;;10.61;82.68
48244;BME280;34053;51.088;6.572;2022-12-29T00:08:48;99744.38;;;10.71;82.71
48244;BME280;34053;51.088;6.572;2022-12-29T00:11:20;99740.38;;;10.62;82.45
48244;BME280;34053;51.088;6.572;2022-12-29T00:13:53;99740.69;;;10.75;82.29
48244;BME280;34053;51.088;6.572;2022-12-29T00:16:43;99745.94;;;10.75;81.83
48244;BME280;34053;51.088;6.572;2022-12-29T00:19:13;99744.19;;;10.76;81.97
48244;BME280;34053;51.088;6.572;2022-12-29T00:22:03;99743.66;;;10.67;82.41
48244;BME280;34053;51.088;6.572;2022-12-29T00:24:52;99741.03;;;10.67;82.30
48244;BME280;34053;51.088;6.572;2022-12-29T00:27:32;99736.63;;;10.68;81.96
48244;BME280;34053;51.088;6.572;2022-12-29T00:30:22;99738.41;;;10.67;82.04
48244;BME280;34053;51.088;6.572;2022-12-29T00:33:22;99738.25;;;10.70;82.11
48244;BME280;34053;51.088;6.572;2022-12-29T00:36:28;99733.59;;;10.77;81.73
48244;BME280;34053;51.088;6.572;2022-12-29T00:39:10;99722.53;;;10.70;82.11
48244;BME280;34053;51.088;6.572;2022-12-29T00:42:04;99705.75;;;10.75;82.15
48244;BME280;34053;51.088;6.572;2022-12-29T00:44:53;99709.19;;;10.75;81.71
48244;BME280;34053;51.088;6.572;2022-12-29T00:47:24;99722.31;;;10.75;81.46
48244;BME280;34053;51.088;6.572;2022-12-29T00:49:54;99708.16;;;10.79;81.09
48244;BME280;34053;51.088;6.572;2022-12-29T00:52:25;99697.75;;;10.78;81.24
48244;BME280;34053;51.088;6.572;2022-12-29T00:54:55;99694.25;;;10.77;81.01
48244;BME280;34053;51.088;6.572;2022-12-29T00:57:26;99694.34;;;10.76;81.26
48244;BME280;34053;51.088;6.572;2022-12-29T00:59:56;99689.22;;;10.73;80.81
48244;BME280;34053;51.088;6.572;2022-12-29T01:02:28;99697.75;;;10.78;80.38
48244;BME280;34053;51.088;6.572;2022-12-29T01:04:58;99700.22;;;10.81;80.15
48244;BME280;34053;51.088;6.572;2022-12-29T01:07:29;99707.25;;;10.80;80.33
48244;BME280;34053;51.088;6.572;2022-12-29T01:09:59;99696.75;;;10.80;80.26
48244;BME280;34053;51.088;6.572;2022-12-29T01:12:42;99710.78;;;10.79;80.16
48244;BME280;34053;51.088;6.572;2022-12-29T01:15:14;99699.41;;;10.79;80.09
48244;BME280;34053;51.088;6.572;2022-12-29T01:17:45;99711.69;;;10.78;80.36
48244;BME280;34053;51.088;6.572;2022-12-29T01:20:15;99710.06;;;10.76;80.84
48244;BME280;34053;51.088;6.572;2022-12-29T01:22:46;99707.53;;;10.74;80.71
48244;BME280;34053;51.088;6.572;2022-12-29T01:25:17;99703.13;;;10.75;80.33
48244;BME280;34053;51.088;6.572;2022-12-29T01:27:47;99702.13;;;10.77;79.82
48244;BME280;34053;51.088;6.572;2022-12-29T01:30:18;99695.16;;;10.76;79.06
48244;BME280;34053;51.088;6.572;2022-12-29T01:32:48;99686.53;;;10.74;78.94
48244;BME280;34053;51.088;6.572;2022-12-29T01:35:19;99687.25;;;10.78;78.95
48244;BME280;34053;51.088;6.572;2022-12-29T01:37:55;99692.50;;;10.78;78.10
48244;BME280;34053;51.088;6.572;2022-12-29T01:40:26;99682.84;;;10.78;78.00
48244;BME280;34053;51.088;6.572;2022-12-29T01:42:58;99681.22;;;10.76;77.64
48244;BME280;34053;51.088;6.572;2022-12-29T01:45:28;99682.13;;;10.75;77.51
48244;BME280;34053;51.088;6.572;2022-12-29T01:48:01;99673.47;;;10.73;77.57
48244;BME280;34053;51.088;6.572;2022-12-29T01:50:39;99665.47;;;10.76;77.83
48244;BME280;34053;51.088;6.572;2022-12-29T01:53:24;99659.16;;;10.80;77.07
48244;BME280;34053;51.088;6.572;2022-12-29T01:56:03;99675.88;;;10.77;77.10
48244;BME280;34053;51.088;6.572;2022-12-29T01:58:39;99666.97;;;10.81;76.76
48244;BME280;34053;51.088;6.572;2022-12-29T02:01:12;99662.78;;;10.77;76.37
48244;BME280;34053;51.088;6.572;2022-12-29T02:03:43;99669.94;;;10.74;76.35
48244;BME280;34053;51.088;6.572;2022-12-29T02:06:26;99682.97;;;10.75;75.92
48244;BME280;34053;51.088;6.572;2022-12-29T02:08:58;99677.66;;;10.77;76.49
48244;BME280;34053;51.088;6.572;2022-12-29T02:11:29;99662.94;;;10.74;76.06
48244;BME280;34053;51.088;6.572;2022-12-29T02:14:01;99666.09;;;10.81;75.51
48244;BME280;34053;51.088;6.572;2022-12-29T02:25:06;99674.34;;;10.73;74.94
48244;BME280;34053;51.088;6.572;2022-12-29T02:30:44;99656.72;;;10.75;75.62
48244;BME280;34053;51.088;6.572;2022-12-29T02:36:00;99661.84;;;10.78;74.63
48244;BME280;34053;51.088;6.572;2022-12-29T02:39:20;99658.31;;;10.79;74.90
48244;BME280;34053;51.088;6.572;2022-12-29T02:50:20;99639.56;;;10.87;75.10
48244;BME280;34053;51.088;6.572;2022-12-29T02:52:58;99637.13;;;10.84;75.75
48244;BME280;34053;51.088;6.572;2022-12-29T02:55:30;99635.28;;;10.86;75.53
48244;BME280;34053;51.088;6.572;2022-12-29T02:58:16;99631.78;;;10.85;75.86
48244;BME280;34053;51.088;6.572;2022-12-29T03:01:14;99625.53;;;10.88;76.72
48244;BME280;34053;51.088;6.572;2022-12-29T03:07:03;99624.63;;;10.89;76.86
48244;BME280;34053;51.088;6.572;2022-12-29T03:10:14;99622.91;;;10.88;76.75
48244;BME280;34053;51.088;6.572;2022-12-29T03:12:56;99616.75;;;10.89;76.93
48244;BME280;34053;51.088;6.572;2022-12-29T03:18:51;99607.97;;;10.90;76.48
48244;BME280;34053;51.088;6.572;2022-12-29T03:21:38;99606.25;;;10.89;76.60
48244;BME280;34053;51.088;6.572;2022-12-29T03:24:34;99607.97;;;10.90;76.58
48244;BME280;34053;51.088;6.572;2022-12-29T03:27:07;99594.84;;;10.90;76.31
48244;BME280;34053;51.088;6.572;2022-12-29T03:29:43;99597.16;;;10.96;76.04
48244;BME280;34053;51.088;6.572;2022-12-29T03:32:16;99595.47;;;10.95;76.30
48244;BME280;34053;51.088;6.572;2022-12-29T03:34:49;99588.66;;;10.91;76.28
48244;BME280;34053;51.088;6.572;2022-12-29T03:37:28;99572.78;;;10.94;76.19
48244;BME280;34053;51.088;6.572;2022-12-29T03:39:59;99585.84;;;10.96;75.97
48244;BME280;34053;51.088;6.572;2022-12-29T03:42:32;99578.88;;;10.95;76.44
48244;BME280;34053;51.088;6.572;2022-12-29T03:45:04;99578.03;;;10.94;76.35
48244;BME280;34053;51.088;6.572;2022-12-29T03:47:36;99584.91;;;10.97;76.02
48244;BME280;34053;51.088;6.572;2022-12-29T03:50:07;99584.13;;;10.95;76.52
48244;BME280;34053;51.088;6.572;2022-12-29T03:52:39;99573.41;;;10.99;75.66
48244;BME280;34053;51.088;6.572;2022-12-29T03:55:09;99569.31;;;10.94;76.06
48244;BME280;34053;51.088;6.572;2022-12-29T03:57:40;99558.66;;;10.97;76.15
48244;BME280;34053;51.088;6.572;2022-12-29T04:00:11;99553.25;;;11.00;76.06
48244;BME280;34053;51.088;6.572;2022-12-29T04:02:42;99548.31;;;10.94;75.98
48244;BME280;34053;51.088;6.572;2022-12-29T04:05:12;99555.34;;;10.93;76.04
48244;BME280;34053;51.088;6.572;2022-12-29T04:07:45;99557.66;;;10.99;75.02
48244;BME280;34053;51.088;6.572;2022-12-29T04:10:16;99553.41;;;10.97;75.43
48244;BME280;34053;51.088;6.572;2022-12-29T04:12:46;99563.84;;;10.98;74.86
48244;BME280;34053;51.088;6.572;2022-12-29T04:15:17;99560.28;;;10.99;75.00
48244;BME280;34053;51.088;6.572;2022-12-29T04:17:47;99574.34;;;10.98;74.68
48244;BME280;34053;51.088;6.572;2022-12-29T04:20:18;99583.00;;;11.00;73.97
48244;BME280;34053;51.088;6.572;2022-12-29T04:23:07;99571.56;;;11.01;74.19
48244;BME280;34053;51.088;6.572;2022-12-29T04:25:37;99586.41;;;11.02;74.05
48244;BME280;34053;51.088;6.572;2022-12-29T04:28:08;99596.75;;;11.06;74.14
48244;BME280;34053;51.088;6.572;2022-12-29T04:30:38;99588.94;;;11.04;74.07
48244;BME280;34053;51.088;6.572;2022-12-29T04:33:09;99585.19;;;11.10;73.74
48244;BME280;34053;51.088;6.572;2022-12-29T04:35:39;99591.34;;;11.09;73.39
48244;BME280;34053;51.088;6.572;2022-12-29T04:38:10;99592.34;;;11.06;73.47
48244;BME280;34053;51.088;6.572;2022-12-29T04:40:42;99594.28;;;11.02;73.51
48244;BME280;34053;51.088;6.572;2022-12-29T04:43:13;99589.44;;;11.12;73.00
48244;BME280;34053;51.088;6.572;2022-12-29T04:45:44;99599.84;;;11.14;72.73
48244;BME280;34053;51.088;6.572;2022-12-29T04:48:15;99594.47;;;11.17;72.48
48244;BME280;34053;51.088;6.572;2022-12-29T04:50:47;99596.44;;;11.12;72.67
48244;BME280;34053;51.088;6.572;2022-12-29T04:53:18;99602.44;;;11.15;72.80
48244;BME280;34053;51.088;6.572;2022-12-29T04:55:50;99597.44;;;11.09;72.85
48244;BME280;34053;51.088;6.572;2022-12-29T04:58:21;99589.53;;;11.11;72.49
48244;BME280;34053;51.088;6.572;2022-12-29T05:00:52;99592.19;;;11.09;72.63
48244;BME280;34053;51.088;6.572;2022-12-29T05:03:22;99582.69;;;11.07;73.04
48244;BME280;34053;51.088;6.572;2022-12-29T05:05:54;99599.16;;;11.10;72.65
48244;BME280;34053;51.088;6.572;2022-12-29T05:08:25;99592.16;;;11.11;72.49
48244;BME280;34053;51.088;6.572;2022-12-29T05:10:55;99597.44;;;11.09;72.71
48244;BME280;34053;51.088;6.572;2022-12-29T05:13:26;99605.09;;;11.14;72.17
48244;BME280;34053;51.088;6.572;2022-12-29T05:15:56;99600.06;;;11.09;72.13
48244;BME280;34053;51.088;6.572;2022-12-29T05:18:27;99609.66;;;11.10;72.42
48244;BME280;34053;51.088;6.572;2022-12-29T05:20:57;99602.56;;;11.12;72.61
48244;BME280;34053;51.088;6.572;2022-12-29T05:23:28;99601.69;;;11.12;72.48
48244;BME280;34053;51.088;6.572;2022-12-29T05:25:58;99605.09;;;11.14;72.08
48244;BME280;34053;51.088;6.572;2022-12-29T05:28:29;99601.69;;;11.12;71.53
48244;BME280;34053;51.088;6.572;2022-12-29T05:30:59;99615.06;;;11.07;71.95
48244;BME280;34053;51.088;6.572;2022-12-29T05:33:30;99616.59;;;11.11;71.43
48244;BME280;34053;51.088;6.572;2022-12-29T05:36:05;99607.94;;;11.09;71.74
48244;BME280;34053;51.088;6.572;2022-12-29T05:38:36;99615.81;;;11.09;70.97
48244;BME280;34053;51.088;6.572;2022-12-29T05:41:06;99616.91;;;11.05;71.22
48244;BME280;34053;51.088;6.572;2022-12-29T05:43:36;99627.31;;;11.07;70.68
48244;BME280;34053;51.088;6.572;2022-12-29T05:46:07;99619.44;;;11.07;71.14
48244;BME280;34053;51.088;6.572;2022-12-29T05:48:38;99628.25;;;11.06;71.18
48244;BME280;34053;51.088;6.572;2022-12-29T05:51:08;99622.94;;;11.07;70.75
48244;BME280;34053;51.088;6.572;2022-12-29T05:53:38;99632.00;;;11.00;71.04
48244;BME280;34053;51.088;6.572;2022-12-29T05:56:09;99636.47;;;10.98;71.06
48244;BME280;34053;51.088;6.572;2022-12-29T05:58:39;99627.69;;;10.99;70.97
48244;BME280;34053;51.088;6.572;2022-12-29T06:01:10;99633.88;;;10.98;71.26
48244;BME280;34053;51.088;6.572;2022-12-29T06:03:40;99630.44;;;10.96;71.37
48244;BME280;34053;51.088;6.572;2022-12-29T06:06:11;99623.69;;;10.90;71.35
48244;BME280;34053;51.088;6.572;2022-12-29T06:08:41;99628.81;;;10.93;71.99
48244;BME280;34053;51.088;6.572;2022-12-29T06:11:12;99623.69;;;10.90;71.81
48244;BME280;34053;51.088;6.572;2022-12-29T06:13:43;99621.88;;;10.92;71.61
48244;BME280;34053;51.088;6.572;2022-12-29T06:16:13;99636.91;;;10.89;71.57
48244;BME280;34053;51.088;6.572;2022-12-29T06:18:44;99631.66;;;10.89;71.01
48244;BME280;34053;51.088;6.572;2022-12-29T06:21:14;99645.13;;;10.81;71.22
48244;BME280;34053;51.088;6.572;2022-12-29T06:23:45;99652.97;;;10.81;70.74
48244;BME280;34053;51.088;6.572;2022-12-29T06:26:16;99658.19;;;10.82;70.83
48244;BME280;34053;51.088;6.572;2022-12-29T06:41:58;99681.22;;;10.76;70.12
48244;BME280;34053;51.088;6.572;2022-12-29T06:58:38;99686.31;;;10.79;70.25
48244;BME280;34053;51.088;6.572;2022-12-29T07:01:09;99688.22;;;10.75;70.07
48244;BME280;34053;51.088;6.572;2022-12-29T07:03:41;99703.00;;;10.78;69.95
48244;BME280;34053;51.088;6.572;2022-12-29T07:06:12;99695.88;;;10.80;70.05
48244;BME280;34053;51.088;6.572;2022-12-29T07:08:43;99703.72;;;10.81;69.70
48244;BME280;34053;51.088;6.572;2022-12-29T07:11:13;99714.06;;;10.84;69.73
48244;BME280;34053;51.088;6.572;2022-12-29T07:13:44;99718.66;;;10.79;70.15
48244;BME280;34053;51.088;6.572;2022-12-29T07:16:14;99716.03;;;10.79;70.29
48244;BME280;34053;51.088;6.572;2022-12-29T07:18:45;99691.63;;;10.77;69.83
48244;BME280;34053;51.088;6.572;2022-12-29T07:21:15;99713.50;;;10.78;70.22
48244;BME280;34053;51.088;6.572;2022-12-29T07:23:46;99720.66;;;10.74;70.29
48244;BME280;34053;51.088;6.572;2022-12-29T07:26:17;99725.03;;;10.74;70.72
48244;BME280;34053;51.088;6.572;2022-12-29T07:28:48;99730.41;;;10.70;70.18
48244;BME280;34053;51.088;6.572;2022-12-29T07:31:21;99737.50;;;10.68;70.00
48244;BME280;34053;51.088;6.572;2022-12-29T07:33:52;99736.63;;;10.68;69.83
48244;BME280;34053;51.088;6.572;2022-12-29T07:36:22;99733.38;;;10.63;69.80
48244;BME280;34053;51.088;6.572;2022-12-29T07:38:53;99742.06;;;10.63;69.85
48244;BME280;34053;51.088;6.572;2022-12-29T07:41:23;99741.13;;;10.66;69.67
48244;BME280;34053;51.088;6.572;2022-12-29T07:43:54;99743.66;;;10.67;69.30
48244;BME280;34053;51.088;6.572;2022-12-29T07:46:24;99743.78;;;10.64;69.29
48244;BME280;34053;51.088;6.572;2022-12-29T07:48:55;99750.03;;;10.62;68.93
48244;BME280;34053;51.088;6.572;2022-12-29T07:51:25;99750.03;;;10.62;68.11
48244;BME280;34053;51.088;6.572;2022-12-29T07:53:55;99752.72;;;10.60;67.99
48244;BME280;34053;51.088;6.572;2022-12-29T07:56:26;99753.47;;;10.62;68.24
48244;BME280;34053;51.088;6.572;2022-12-29T07:58:57;99755.25;;;10.62;68.51
48244;BME280;34053;51.088;6.572;2022-12-29T08:01:27;99759.78;;;10.58;68.59
48244;BME280;34053;51.088;6.572;2022-12-29T08:03:58;99757.97;;;10.60;68.29
48244;BME280;34053;51.088;6.572;2022-12-29T08:06:28;99760.50;;;10.62;67.82
48244;BME280;34053;51.088;6.572;2022-12-29T08:09:00;99764.03;;;10.61;67.93
48244;BME280;34053;51.088;6.572;2022-12-29T08:11:31;99749.19;;;10.61;67.98
48244;BME280;34053;51.088;6.572;2022-12-29T08:14:02;99755.19;;;10.63;67.94
48244;BME280;34053;51.088;6.572;2022-12-29T08:16:33;99754.44;;;10.61;67.89
48244;BME280;34053;51.088;6.572;2022-12-29T08:19:03;99754.28;;;10.64;67.81
48244;BME280;34053;51.088;6.572;2022-12-29T08:21:35;99763.13;;;10.62;67.59
48244;BME280;34053;51.088;6.572;2022-12-29T08:24:06;99770.94;;;10.63;68.10
48244;BME280;34053;51.088;6.572;2022-12-29T08:26:36;99768.38;;;10.62;68.58
48244;BME280;34053;51.088;6.572;2022-12-29T08:29:07;99784.13;;;10.62;68.33
48244;BME280;34053;51.088;6.572;2022-12-29T08:31:37;99791.06;;;10.63;68.73
48244;BME280;34053;51.088;6.572;2022-12-29T08:34:08;99805.91;;;10.64;69.88
48244;BME280;34053;51.088;6.572;2022-12-29T08:36:38;99814.81;;;10.60;71.45
48244;BME280;34053;51.088;6.572;2022-12-29T08:39:09;99804.50;;;10.55;71.57
48244;BME280;34053;51.088;6.572;2022-12-29T08:41:39;99803.97;;;10.47;70.51
48244;BME280;34053;51.088;6.572;2022-12-29T08:44:10;99795.97;;;10.50;69.89
48244;BME280;34053;51.088;6.572;2022-12-29T08:46:41;99802.13;;;10.49;70.10
48244;BME280;34053;51.088;6.572;2022-12-29T08:49:11;99806.41;;;10.51;69.42
48244;BME280;34053;51.088;6.572;2022-12-29T08:51:42;99801.13;;;10.53;68.36
48244;BME280;34053;51.088;6.572;2022-12-29T08:54:13;99792.44;;;10.51;68.73
48244;BME280;34053;51.088;6.572;2022-12-29T08:56:43;99800.31;;;10.51;68.55
48244;BME280;34053;51.088;6.572;2022-12-29T08:59:14;99815.06;;;10.53;68.43
48244;BME280;34053;51.088;6.572;2022-12-29T09:01:47;99817.63;;;10.55;67.97
48244;BME280;34053;51.088;6.572;2022-12-29T09:04:17;99818.59;;;10.52;67.88
48244;BME280;34053;51.088;6.572;2022-12-29T09:06:48;99821.16;;;10.54;67.86
48244;BME280;34053;51.088;6.572;2022-12-29T09:09:18;99819.22;;;10.59;67.92
48244;BME280;34053;51.088;6.572;2022-12-29T09:11:49;99829.88;;;10.54;68.99
48244;BME280;34053;51.088;6.572;2022-12-29T09:14:19;99833.34;;;10.55;68.02
48244;BME280;34053;51.088;6.572;2022-12-29T09:16:52;99838.56;;;10.57;67.96
48244;BME280;34053;51.088;6.572;2022-12-29T09:19:41;99838.66;;;10.53;68.43
48244;BME280;34053;51.088;6.572;2022-12-29T09:22:11;99839.47;;;10.55;68.19
48244;BME280;34053;51.088;6.572;2022-12-29T09:24:42;99842.09;;;10.55;68.11
48244;BME280;34053;51.088;6.572;2022-12-29T09:27:12;99855.84;;;10.61;66.02
48244;BME280;34053;51.088;6.572;2022-12-29T09:29:43;99856.53;;;10.66;65.92
48244;BME280;34053;51.088;6.572;2022-12-29T09:32:13;99859.22;;;10.64;66.04
48244;BME280;34053;51.088;6.572;2022-12-29T09:34:44;99866.09;;;10.67;65.43
48244;BME280;34053;51.088;6.572;2022-12-29T09:37:14;99860.81;;;10.68;64.50
48244;BME280;34053;51.088;6.572;2022-12-29T09:39:45;99859.91;;;10.69;65.29
48244;BME280;34053;51.088;6.572;2022-12-29T09:47:41;99873.00;;;10.69;64.16
48244;BME280;34053;51.088;6.572;2022-12-29T09:50:27;99867.03;;;10.66;64.21
48244;BME280;34053;51.088;6.572;2022-12-29T09:55:38;99868.69;;;10.68;62.65
48244;BME280;34053;51.088;6.572;2022-12-29T09:58:37;99858.09;;;10.70;62.73
48244;BME280;34053;51.088;6.572;2022-12-29T10:01:24;99848.41;;;10.72;63.07
48244;BME280;34053;51.088;6.572;2022-12-29T10:03:58;99853.50;;;10.75;63.43
48244;BME280;34053;51.088;6.572;2022-12-29T10:17:32;99852.38;;;10.82;63.14
48244;BME280;34053;51.088;6.572;2022-12-29T10:20:31;99867.25;;;10.82;63.26
48244;BME280;34053;51.088;6.572;2022-12-29T10:25:54;99875.75;;;10.87;63.41
48244;BME280;34053;51.088;6.572;2022-12-29T10:28:38;99870.50;;;10.87;63.20
48244;BME280;34053;51.088;6.572;2022-12-29T10:31:19;99880.25;;;10.85;62.68
48244;BME280;34053;51.088;6.572;2022-12-29T10:33:57;99883.78;;;10.84;62.83
48244;BME280;34053;51.088;6.572;2022-12-29T10:36:49;99886.41;;;10.84;62.84
48244;BME280;34053;51.088;6.572;2022-12-29T10:39:33;99881.16;;;10.84;62.69
48244;BME280;34053;51.088;6.572;2022-12-29T10:42:26;99882.72;;;10.88;62.86
48244;BME280;34053;51.088;6.572;2022-12-29T10:44:58;99884.31;;;10.92;61.67
48244;BME280;34053;51.088;6.572;2022-12-29T10:47:35;99889.56;;;10.92;61.57
48244;BME280;34053;51.088;6.572;2022-12-29T10:50:12;99879.00;;;10.94;61.64
48244;BME280;34053;51.088;6.572;2022-12-29T10:52:42;99892.97;;;10.94;62.56
48244;BME280;34053;51.088;6.572;2022-12-29T10:55:18;99892.03;;;10.95;62.42
48244;BME280;34053;51.088;6.572;2022-12-29T10:57:50;99898.16;;;10.96;62.78
48244;BME280;34053;51.088;6.572;2022-12-29T11:00:21;99904.06;;;11.01;62.44
48244;BME280;34053;51.088;6.572;2022-12-29T11:05:58;99914.72;;;10.98;61.48
48244;BME280;34053;51.088;6.572;2022-12-29T11:08:38;99909.66;;;10.93;62.30
48244;BME280;34053;51.088;6.572;2022-12-29T11:11:11;99916.53;;;10.96;62.93
48244;BME280;34053;51.088;6.572;2022-12-29T11:13:48;99917.38;;;10.96;62.88
48244;BME280;34053;51.088;6.572;2022-12-29T11:16:31;99929.47;;;11.00;62.23
48244;BME280;34053;51.088;6.572;2022-12-29T11:19:03;99939.09;;;11.00;62.40
48244;BME280;34053;51.088;6.572;2022-12-29T11:21:36;99935.69;;;10.98;61.70
48244;BME280;34053;51.088;6.572;2022-12-29T11:24:28;99947.16;;;10.95;62.57
48244;BME280;34053;51.088;6.572;2022-12-29T11:27:15;99947.22;;;10.94;61.73
48244;BME280;34053;51.088;6.572;2022-12-29T11:29:50;99945.47;;;10.94;61.85
48244;BME280;34053;51.088;6.572;2022-12-29T11:32:25;99957.81;;;10.92;61.59
48244;BME280;34053;51.088;6.572;2022-12-29T11:34:57;99961.34;;;10.91;61.45
48244;BME280;34053;51.088;6.572;2022-12-29T11:37:37;99960.28;;;10.95;61.70
48244;BME280;34053;51.088;6.572;2022-12-29T11:40:20;99939.34;;;10.94;61.91
48244;BME280;34053;51.088;6.572;2022-12-29T11:42:56;99942.84;;;10.94;61.55
48244;BME280;34053;51.088;6.572;2022-12-29T11:45:45;99940.22;;;10.94;61.89
48244;BME280;34053;51.088;6.572;2022-12-29T11:48:18;99955.97;;;10.94;61.91
48244;BME280;34053;51.088;6.572;2022-12-29T11:50:53;99961.34;;;10.91;61.90
48244;BME280;34053;51.088;6.572;2022-12-29T11:53:36;99957.91;;;10.89;61.40
48244;BME280;34053;51.088;6.572;2022-12-29T11:56:17;99963.31;;;10.86;62.27
48244;BME280;34053;51.088;6.572;2022-12-29T11:58:50;99967.63;;;10.87;62.16
48244;BME280;34053;51.088;6.572;2022-12-29T12:01:47;99970.38;;;10.84;61.79
48244;BME280;34053;51.088;6.572;2022-12-29T12:04:21;99965.38;;;10.78;61.65
48244;BME280;34053;51.088;6.572;2022-12-29T12:07:54;99967.94;;;10.79;61.37
48244;BME280;34053;51.088;6.572;2022-12-29T12:10:08;99972.38;;;10.77;62.06
48244;BME280;34053;51.088;6.572;2022-12-29T12:12:58;99971.47;;;10.78;61.93
48244;BME280;34053;51.088;6.572;2022-12-29T12:15:49;99972.47;;;10.76;62.31
48244;BME280;34053;51.088;6.572;2022-12-29T12:18:32;99958.53;;;10.74;61.15
48244;BME280;34053;51.088;6.572;2022-12-29T12:21:09;99978.69;;;10.73;61.13
48244;BME280;34053;51.088;6.572;2022-12-29T12:26:42;99970.84;;;10.71;61.46
48244;BME280;34053;51.088;6.572;2022-12-29T12:29:20;99979.59;;;10.72;60.73
48244;BME280;34053;51.088;6.572;2022-12-29T12:32:04;99984.88;;;10.70;61.58
48244;BME280;34053;51.088;6.572;2022-12-29T12:34:43;99977.78;;;10.74;61.70
48244;BME280;34053;51.088;6.572;2022-12-29T13:00:12;99998.22;;;10.66;62.05
48244;BME280;34053;51.088;6.572;2022-12-29T13:10:50;99998.94;;;10.69;61.44
48244;BME280;34053;51.088;6.572;2022-12-29T13:19:34;100008.63;;;10.67;61.43
48244;BME280;34053;51.088;6.572;2022-12-29T13:25:18;100017.72;;;10.81;60.46
48244;BME280;34053;51.088;6.572;2022-12-29T13:36:30;100030.19;;;10.76;61.09
48244;BME280;34053;51.088;6.572;2022-12-29T13:39:12;100039.06;;;10.71;60.68
48244;BME280;34053;51.088;6.572;2022-12-29T13:41:49;100032.09;;;10.70;60.59
48244;BME280;34053;51.088;6.572;2022-12-29T13:44:28;100037.25;;;10.74;60.29
48244;BME280;34053;51.088;6.572;2022-12-29T13:50:03;100036.44;;;10.71;60.41
48244;BME280;34053;51.088;6.572;2022-12-29T13:52:52;100043.53;;;10.69;60.47
48244;BME280;34053;51.088;6.572;2022-12-29T13:55:36;100050.31;;;10.75;60.52
48244;BME280;34053;51.088;6.572;2022-12-29T14:01:40;100053.09;;;10.70;60.76
48244;BME280;34053;51.088;6.572;2022-12-29T14:04:16;100056.59;;;10.71;60.98
48244;BME280;34053;51.088;6.572;2022-12-29T14:07:15;100066.59;;;10.61;60.44
48244;BME280;34053;51.088;6.572;2022-12-29T14:09:55;100065.66;;;10.62;60.54
48244;BME280;34053;51.088;6.572;2022-12-29T14:12:38;100051.03;;;10.57;60.27
48244;BME280;34053;51.088;6.572;2022-12-29T14:17:41;100064.19;;;10.55;61.07
48244;BME280;34053;51.088;6.572;2022-12-29T14:20:19;100066.03;;;10.53;61.05
48244;BME280;34053;51.088;6.572;2022-12-29T14:28:29;100068.09;;;10.45;61.17
48244;BME280;34053;51.088;6.572;2022-12-29T14:31:17;100062.84;;;10.45;61.06
48244;BME280;34053;51.088;6.572;2022-12-29T14:37:03;100076.13;;;10.40;62.21
48244;BME280;34053;51.088;6.572;2022-12-29T14:39:42;100076.97;;;10.41;62.56
48244;BME280;34053;51.088;6.572;2022-12-29T14:42:19;100076.97;;;10.41;62.43
48244;BME280;34053;51.088;6.572;2022-12-29T14:45:06;100079.66;;;10.39;62.29
48244;BME280;34053;51.088;6.572;2022-12-29T14:47:49;100073.53;;;10.38;62.29
48244;BME280;34053;51.088;6.572;2022-12-29T14:50:40;100076.25;;;10.35;62.07
48244;BME280;34053;51.088;6.572;2022-12-29T14:53:47;100087.53;;;10.37;62.32
48244;BME280;34053;51.088;6.572;2022-12-29T14:56:19;100092.78;;;10.37;62.00
48244;BME280;34053;51.088;6.572;2022-12-29T14:59:01;100096.41;;;10.33;62.14
48244;BME280;34053;51.088;6.572;2022-12-29T15:01:38;100091.19;;;10.33;61.95
48244;BME280;34053;51.088;6.572;2022-12-29T15:04:23;100086.78;;;10.34;62.16
48244;BME280;34053;51.088;6.572;2022-12-29T15:06:55;100084.31;;;10.29;62.07
48244;BME280;34053;51.088;6.572;2022-12-29T15:09:32;100089.53;;;10.31;62.34
48244;BME280;34053;51.088;6.572;2022-12-29T15:12:19;100082.72;;;10.25;62.13
48244;BME280;34053;51.088;6.572;2022-12-29T15:14:55;100084.31;;;10.29;62.40
48244;BME280;34053;51.088;6.572;2022-12-29T15:17:27;100090.59;;;10.25;62.37
48244;BME280;34053;51.088;6.572;2022-12-29T15:23:09;100093.44;;;10.19;62.45
48244;BME280;34053;51.088;6.572;2022-12-29T15:25:58;100093.53;;;10.16;62.51
48244;BME280;34053;51.088;6.572;2022-12-29T15:28:42;100095.34;;;10.14;62.31
48244;BME280;34053;51.088;6.572;2022-12-29T15:31:19;100090.13;;;10.14;61.98
48244;BME280;34053;51.088;6.572;2022-12-29T15:34:00;100073.53;;;10.13;61.85
48244;BME280;34053;51.088;6.572;2022-12-29T15:36:37;100090.13;;;10.14;62.13
48244;BME280;34053;51.088;6.572;2022-12-29T15:39:19;100100.59;;;10.14;62.41
48244;BME280;34053;51.088;6.572;2022-12-29T15:42:01;100091.84;;;10.15;62.20
48244;BME280;34053;51.088;6.572;2022-12-29T15:44:37;100093.88;;;10.06;62.48
48244;BME280;34053;51.088;6.572;2022-12-29T15:47:26;100092.13;;;10.07;61.88
48244;BME280;34053;51.088;6.572;2022-12-29T15:50:04;100106.88;;;10.10;61.89
48244;BME280;34053;51.088;6.572;2022-12-29T15:52:39;100107.09;;;10.03;62.31
48244;BME280;34053;51.088;6.572;2022-12-29T15:55:39;100119.25;;;10.04;62.65
48244;BME280;34053;51.088;6.572;2022-12-29T15:58:21;100118.50;;;10.02;62.80
48244;BME280;34053;51.088;6.572;2022-12-29T16:01:00;100122.09;;;9.98;62.97
48244;BME280;34053;51.088;6.572;2022-12-29T16:03:35;100127.47;;;9.95;62.37
48244;BME280;34053;51.088;6.572;2022-12-29T16:09:03;100107.50;;;9.91;62.01
48244;BME280;34053;51.088;6.572;2022-12-29T16:11:38;100119.69;;;9.92;61.48
48244;BME280;34053;51.088;6.572;2022-12-29T16:14:16;100122.41;;;9.89;62.23
48244;BME280;34053;51.088;6.572;2022-12-29T16:16:49;100127.78;;;9.86;62.20
48244;BME280;34053;51.088;6.572;2022-12-29T16:21:57;100127.78;;;9.86;62.55